createdAt,value
2019-01-08T00:02:04.800Z,44.90
2019-01-08T00:07:08.365Z,30.93
2019-01-08T00:12:11.677Z,36.73
2019-01-08T00:17:14.661Z,50.17
2019-01-08T00:22:17.879Z,37.93
2019-01-08T00:27:21.635Z,42.33
2019-01-08T00:32:25.161Z,46.30
2019-01-08T00:37:30.292Z,55.13
2019-01-08T00:42:33.465Z,48.03
2019-01-08T00:47:36.980Z,44.67
2019-01-08T00:52:40.328Z,42.53
2019-01-08T00:57:44.425Z,51.23
2019-01-08T01:02:48.176Z,36.40
2019-01-08T01:07:51.091Z,45.10
2019-01-08T01:12:54.095Z,41.80
2019-01-08T01:17:57.618Z,36.97
2019-01-08T01:23:00.809Z,39.03
2019-01-08T01:28:03.813Z,30.43
2019-01-08T01:33:07.101Z,49.83
2019-01-08T01:38:10.447Z,33.23
2019-01-08T01:43:13.852Z,34.53
2019-01-08T01:48:17.174Z,27.83
2019-01-08T01:53:20.395Z,25.00
2019-01-08T01:58:24.006Z,39.67
2019-01-08T02:03:26.552Z,28.30
2019-01-08T02:08:29.788Z,50.37
2019-01-08T02:13:33.000Z,16.47
2019-01-08T02:24:57.357Z,37.47
2019-01-08T02:30:00.884Z,30.23
2019-01-08T02:35:04.184Z,49.33
2019-01-08T02:46:28.324Z,50.60
2019-01-08T02:51:31.104Z,35.40
2019-01-08T02:56:33.719Z,43.63
2019-01-08T03:01:36.075Z,44.93
2019-01-08T03:06:38.998Z,48.70
2019-01-08T03:11:41.398Z,39.27
2019-01-08T03:16:43.785Z,45.57
2019-01-08T03:21:46.764Z,41.30
2019-01-08T03:26:49.291Z,48.17
2019-01-08T03:31:52.269Z,51.50
2019-01-08T03:36:53.925Z,43.13
2019-01-08T03:41:56.239Z,55.63
2019-01-08T03:46:58.951Z,59.33
2019-01-08T03:52:01.536Z,69.20
2019-01-08T03:57:04.008Z,58.07
2019-01-08T04:02:06.430Z,54.40
2019-01-08T04:07:09.212Z,40.93
2019-01-08T04:12:11.816Z,49.20
2019-01-08T04:17:14.711Z,38.33
2019-01-08T04:22:17.110Z,52.03
2019-01-08T04:27:19.458Z,51.30
2019-01-08T04:32:22.462Z,34.73
2019-01-08T04:37:25.414Z,46.27
2019-01-08T04:42:27.690Z,46.37
2019-01-08T04:47:30.376Z,46.03
2019-01-08T04:52:33.014Z,54.33
2019-01-08T04:57:36.101Z,55.40
2019-01-08T05:02:38.717Z,58.33
2019-01-08T05:07:40.989Z,50.27
2019-01-08T05:12:43.066Z,33.77
2019-01-08T05:17:46.061Z,34.53
2019-01-08T05:22:48.762Z,33.37
2019-01-08T05:27:51.052Z,34.47
2019-01-08T05:32:53.327Z,33.67
2019-01-08T05:37:55.622Z,36.43
2019-01-08T05:42:58.219Z,39.43
2019-01-08T05:48:01.196Z,44.67
2019-01-08T05:53:03.862Z,44.77
2019-01-08T05:58:06.307Z,43.17
2019-01-08T06:03:08.931Z,58.20
2019-01-08T06:08:12.001Z,59.43
2019-01-08T06:13:14.716Z,63.30
2019-01-08T06:18:17.447Z,52.03
2019-01-08T06:23:20.117Z,48.20
2019-01-08T06:28:22.399Z,51.07
2019-01-08T06:33:24.595Z,44.13
2019-01-08T06:38:26.982Z,47.80
2019-01-08T06:43:29.860Z,29.70
2019-01-08T06:48:32.776Z,44.60
2019-01-08T06:53:35.747Z,27.57
2019-01-08T06:58:38.491Z,45.37
2019-01-08T07:03:41.454Z,37.67
2019-01-08T07:08:43.789Z,41.90
2019-01-08T07:13:46.497Z,39.13
2019-01-08T07:18:48.884Z,28.87
2019-01-08T07:23:51.584Z,36.70
2019-01-08T07:28:54.075Z,32.93
2019-01-08T07:33:56.907Z,25.27
2019-01-08T07:38:58.957Z,18.47
2019-01-08T07:44:01.716Z,19.27
2019-01-08T07:49:04.129Z,20.63
2019-01-08T07:54:06.766Z,14.13
2019-01-08T07:59:09.321Z,27.90
2019-01-08T08:04:11.310Z,26.53
2019-01-08T08:09:13.952Z,14.00
2019-01-08T08:14:16.798Z,14.87
2019-01-08T08:19:18.799Z,16.60
2019-01-08T08:24:21.387Z,13.40
2019-01-08T08:29:23.749Z,16.30
2019-01-08T08:34:26.387Z,25.53
2019-01-08T08:39:28.770Z,32.07
2019-01-08T08:44:31.108Z,19.20
2019-01-08T08:49:33.438Z,10.27
2019-01-08T08:54:36.081Z,17.63
2019-01-08T08:59:38.112Z,14.97
2019-01-08T09:04:40.873Z,9.40
2019-01-08T09:09:43.892Z,3.97
2019-01-08T09:14:46.809Z,3.90
2019-01-08T09:19:49.462Z,5.70
2019-01-08T09:24:52.120Z,5.20
2019-01-08T09:29:54.985Z,8.20
2019-01-08T09:34:56.699Z,8.50
2019-01-08T09:39:59.578Z,7.03
2019-01-08T09:45:02.209Z,5.57
2019-01-08T09:50:05.357Z,2.20
2019-01-08T09:55:07.888Z,3.10
2019-01-08T10:00:10.949Z,4.63
2019-01-08T10:05:13.152Z,6.10
2019-01-08T10:10:15.744Z,8.43
2019-01-08T10:15:18.481Z,4.00
2019-01-08T10:20:20.956Z,6.63
2019-01-08T10:25:23.881Z,1.70
2019-01-08T10:30:26.313Z,1.67
2019-01-08T10:35:28.657Z,3.40
2019-01-08T10:40:30.965Z,2.07
2019-01-08T10:45:34.505Z,2.00
2019-01-08T10:50:36.666Z,5.93
2019-01-08T10:55:38.941Z,16.77
2019-01-08T11:00:41.335Z,4.10
2019-01-08T11:05:44.001Z,9.93
2019-01-08T11:10:46.722Z,10.63
2019-01-08T11:15:49.429Z,8.73
2019-01-08T11:20:51.437Z,3.97
2019-01-08T11:25:54.150Z,8.17
2019-01-08T11:30:57.084Z,8.47
2019-01-08T11:35:59.509Z,13.43
2019-01-08T11:41:01.891Z,4.47
2019-01-08T11:46:04.861Z,5.40
2019-01-08T11:51:06.897Z,10.03
2019-01-08T11:56:09.643Z,3.43
2019-01-08T12:01:12.238Z,9.90
2019-01-08T12:06:14.676Z,3.60
2019-01-08T12:11:18.585Z,6.17
2019-01-08T12:16:20.985Z,3.30
2019-01-08T12:21:24.100Z,5.93
2019-01-08T12:26:27.051Z,12.60
2019-01-08T12:31:29.489Z,3.50
2019-01-08T12:36:32.207Z,6.10
2019-01-08T12:41:35.261Z,1.43
2019-01-08T12:46:37.882Z,12.73
2019-01-08T12:51:40.590Z,2.47
2019-01-08T12:56:43.559Z,1.03
2019-01-08T13:01:46.946Z,5.87
2019-01-08T13:06:49.300Z,3.90
2019-01-08T13:11:52.192Z,1.33
2019-01-08T13:16:54.184Z,3.90
2019-01-08T13:21:56.266Z,1.53
2019-01-08T13:26:59.367Z,6.93
2019-01-08T13:32:02.260Z,3.50
2019-01-08T13:37:05.049Z,4.00
2019-01-08T13:42:07.989Z,3.60
2019-01-08T13:47:10.962Z,3.23
2019-01-08T13:52:14.004Z,2.50
2019-01-08T13:57:16.477Z,3.97
2019-01-08T14:02:18.959Z,2.47
2019-01-08T14:07:21.353Z,2.63
2019-01-08T14:12:23.868Z,5.87
2019-01-08T14:17:26.668Z,3.67
2019-01-08T14:22:29.599Z,1.77
2019-01-08T14:27:32.364Z,1.27
2019-01-08T14:32:40.523Z,8.70
2019-01-08T14:37:40.347Z,6.47
2019-01-08T14:42:42.473Z,2.10
2019-01-08T14:47:45.000Z,6.93
2019-01-08T14:52:47.354Z,4.30
2019-01-08T14:57:50.274Z,2.70
2019-01-08T15:02:53.196Z,2.40
2019-01-08T15:07:56.165Z,4.27
2019-01-08T15:12:59.303Z,8.30
2019-01-08T15:18:02.328Z,8.50
2019-01-08T15:23:05.314Z,24.83
2019-01-08T15:28:08.405Z,4.07
2019-01-08T15:33:10.891Z,6.87
2019-01-08T15:38:13.009Z,5.00
2019-01-08T15:43:15.394Z,5.70
2019-01-08T15:48:17.777Z,2.47
2019-01-08T15:53:20.153Z,7.30
2019-01-08T15:58:22.873Z,2.70
2019-01-08T16:03:25.532Z,3.80
2019-01-08T16:08:28.204Z,4.73
2019-01-08T16:13:30.644Z,4.30
2019-01-08T16:18:33.456Z,3.40
2019-01-08T16:23:36.332Z,3.63
2019-01-08T16:28:39.078Z,5.37
2019-01-08T16:33:42.169Z,5.53
2019-01-08T16:38:45.269Z,5.37
2019-01-08T16:43:47.813Z,2.07
2019-01-08T16:48:50.890Z,2.23
2019-01-08T16:53:53.964Z,8.43
2019-01-08T16:58:56.684Z,5.60
2019-01-08T17:03:59.267Z,8.93
2019-01-08T17:09:02.361Z,2.73
2019-01-08T17:14:05.053Z,2.13
2019-01-08T17:19:07.747Z,1.53
2019-01-08T17:24:10.160Z,1.40
2019-01-08T17:29:13.220Z,3.70
2019-01-08T17:34:16.022Z,4.40
2019-01-08T17:39:18.670Z,1.67
2019-01-08T17:44:20.857Z,5.20
2019-01-08T17:49:23.826Z,2.80
2019-01-08T17:54:26.892Z,2.63
2019-01-08T17:59:29.771Z,9.50
2019-01-08T18:04:32.281Z,5.80
2019-01-08T18:09:35.395Z,5.70
2019-01-08T18:14:38.292Z,4.30
2019-01-08T18:19:41.752Z,1.00
2019-01-08T18:24:46.764Z,6.23
2019-01-08T18:29:49.243Z,1.80
2019-01-08T18:34:52.403Z,6.07
2019-01-08T18:39:55.687Z,4.60
2019-01-08T18:44:59.283Z,1.00
2019-01-08T18:50:01.570Z,2.30
2019-01-08T18:55:03.873Z,4.10
2019-01-08T19:00:06.818Z,3.17
2019-01-08T19:05:10.085Z,3.80
2019-01-08T19:10:14.204Z,2.70
2019-01-08T19:15:16.824Z,2.87
2019-01-08T19:20:21.782Z,1.17
2019-01-08T19:25:26.040Z,2.67
2019-01-08T19:30:29.784Z,2.93
2019-01-08T19:35:35.403Z,1.03
2019-01-08T19:40:41.350Z,5.10
2019-01-08T19:45:46.560Z,3.20
2019-01-08T19:50:51.964Z,2.50
2019-01-08T19:55:58.066Z,2.30
2019-01-08T20:01:03.623Z,6.23
2019-01-08T20:06:09.449Z,4.70
2019-01-08T20:11:15.596Z,5.70
2019-01-08T20:16:20.334Z,5.60
2019-01-08T20:21:23.789Z,16.17
2019-01-08T20:26:28.235Z,3.00
2019-01-08T20:31:31.866Z,11.13
2019-01-08T20:36:37.717Z,6.50
2019-01-08T20:41:41.356Z,3.23
2019-01-08T20:46:47.446Z,10.97
2019-01-08T20:51:50.772Z,17.60
2019-01-08T20:56:54.448Z,5.30
2019-01-08T21:01:57.870Z,9.13
2019-01-08T21:07:01.098Z,10.43
2019-01-08T21:12:04.504Z,18.90
2019-01-08T21:17:07.625Z,4.97
2019-01-08T21:22:11.584Z,7.90
2019-01-08T21:27:15.626Z,8.43
2019-01-08T21:32:18.792Z,6.10
2019-01-08T21:37:21.691Z,18.87
2019-01-08T21:42:24.401Z,6.27
2019-01-08T21:47:27.043Z,15.33
2019-01-08T21:52:30.237Z,7.10
2019-01-08T21:57:33.291Z,10.93
2019-01-08T22:02:36.167Z,5.23
2019-01-08T22:07:39.347Z,5.30
2019-01-08T22:12:42.419Z,19.17
2019-01-08T22:17:45.562Z,11.50
2019-01-08T22:22:52.619Z,17.97
2019-01-08T22:27:52.729Z,4.23
2019-01-08T22:32:55.897Z,11.40
2019-01-08T22:38:25.127Z,10.10
2019-01-08T22:43:53.108Z,10.40
2019-01-08T22:48:58.943Z,2.20
2019-01-08T22:54:03.981Z,11.47
2019-01-08T22:59:09.171Z,10.33
2019-01-08T23:04:27.288Z,6.37
2019-01-08T23:09:34.108Z,12.90
2019-01-08T23:14:39.700Z,8.47
2019-01-08T23:19:44.654Z,5.80
2019-01-08T23:24:48.864Z,11.63
2019-01-08T23:29:51.488Z,4.00
2019-01-08T23:34:58.478Z,7.50
2019-01-08T23:40:05.034Z,11.43
2019-01-08T23:45:13.054Z,10.50
2019-01-08T23:50:16.460Z,3.20
2019-01-08T23:55:22.047Z,2.27
